Kiefer, OK

6:25 PM CST on December 27, 2014 (GMT -0600)
Jones Jr. | Change Station
CLOSE
Current Station
Airport
Location: Tulsa Jones,
Elevation: 636 ft
Nearby Weather Stations

Elev 636 ft 36.04 °N, 95.98 °W | Updated 32 minutes ago

Partly Cloudy
Partly Cloudy
29 °F
Feels Like 29 °F
N
0
Wind Variable Wind from North

Today
High -- | Low -- °F
--% Chance of Precip.
Yesterday
High -- | Low -- °F
Precip. -- in
7:33 AM 5:17 PM
Waxing Crescent, 41% visible
Pressure 30.32 in
Visibility 10.0 miles
Clouds Clear
Dew Point 26 °F
Humidity 89%
Rainfall 0.04 in
Snow Depth Not available.
UV 0 out of 12
Pollen 6.60 out of 12
Air Quality Not available.
Flu Activity Not available.
METAR KRVS 272353Z 00000KT 10SM CLR M02/M03 A3029 RMK AO2 SLP266 60001 T10171033 10017 21017 50005

More Conditions Fewer Conditions

Pressure 30.32 in
Visibility 10.0 miles
Clouds Clear
Dew Point 26 °F
Humidity 89%
Rainfall 0.04 in
Snow Depth Not available.
UV 0 out of 12
Pollen 6.60 out of 12
Air Quality Not available.
Flu Activity Not available.
METAR KRVS 272353Z 00000KT 10SM CLR M02/M03 A3029 RMK AO2 SLP266 60001 T10171033 10017 21017 50005

More Conditions Fewer Conditions

Nowcast | as of 5:42 PM CST on December 27, 2014

At 5:42 PM...National Weather Service Doppler radars indicated scattered light precipitation falling over parts of northwest Arkansas and southeast Oklahoma. The bulk of the precipitation has shifted east into central Arkansas. Through 6:45 PM...occasional light rain will remain possible for west-central Arkansas and far southeast Oklahoma...where additional rainfall from a trace to a few hundredths of an inch are possible. A mix of light rain...sleet or snow will be possible over parts of Madison...northern Crawford and northern Franklin counties...though no measurable snow or sleet are expected. The precipitation will continue to end from west to east...and is expected to move out of the area by 6:45 PM...therefore this will be the final short term forecast issued for this event.

×

10-Day Weather Forecast

Almanac

Astronomy

Dec. 27, 2014 Rise Set
Actual Time
Civil Twilight
Nautical Twilight
Astronomical Twilight
Moon
Length of Visible Light
Length of Day
Tomorrow will be .
, % of the Moon is Illuminated

Today's Extremes

State Highs State Lows

Community

WunderPhotos

Upload Photos

1,781,116 photos uploaded!

WunderBlogs® & News

Nearby

Air Quality

  Air Quality AQ Index Pollutant
Not available.

Snow Depth

Station Depth Elevation

Earthquake Activity

City Distance Mag. Time & Date
Minimum magnitude displayed is 2.5.

Coastal Water Temperatures

Place Temperature

Nearby Weather Stations